Sarny, Ukraine
Current Conditions -  °F | °C
As of 7:00 AM on Thursday 23 Oct 2014 (Local Time) from UKLR Reporting Station
Haze Haze  
Wind Chill: 30°   Ceiling: 500
Heat Index: 39°   Visibility: 2mi
Dew Point: 37°   Wind: 18mph
Humidity: 93%   Direction: 80°E
Pressure: 29.88"   Gusts: NA
Location:  51.33°N, 26.6°E
Report Text: UKLR 230400Z 08008MPS 3300 BR BKN005 BKN011CB 04/03 Q1012 NOSIG
Loading
Personal Weather Stations






























Interactive Weather Map
Tropical Storm Tracking
New forecast layout! Learn more

10-Day Weather Forecast

Advertisements
Track Severe Weather on mobile